<?xml version="1.0" encoding="UTF-8" standalone="no" ?>
<gpx xmlns="http://www.topografix.com/GPX/1/1" xmlns:xsi="http://www.w3.org/2001/XMLSchema-instance" xsi:schemaLocation="http://www.topografix.com/GPX/1/1 http://www.topografix.com/GPX/1/1/gpx.xsd" version="1.1" creator="VisuGPX - https://www.visugpx.com">
  <metadata>
    <name>83 - V - Ampus voie romaine</name>
    <desc><![CDATA[Passage au point 809 de la Sigue pour aller voir la voie romaine. Il serait préférable de prendre le chemin noir à l'ouest des Bousquet pour éviter la déchetterie.]]></desc>
  </metadata>
  <trk>
    <name><![CDATA[Ampus poin809 voie romaine]]></name>
    <desc><![CDATA[comment ...]]></desc>
    <extensions>
      <line xmlns="http://www.topografix.com/GPX/gpx_style/0/2">
        <color>0000FF</color>
        <width>4</width>
      </line>
    </extensions>
    <trkseg>
      <trkpt lat="43.58533" lon="6.38474">
        <ele>694</ele>
        <time>2026-02-18T13:06:41Z</time>
      </trkpt>
      <trkpt lat="43.58533" lon="6.38474">
        <ele>700</ele>
        <time>2026-02-18T13:06:44Z</time>
      </trkpt>
      <trkpt lat="43.58529" lon="6.38468">
        <ele>703</ele>
        <time>2026-02-18T13:07:50Z</time>
      </trkpt>
      <trkpt lat="43.58523" lon="6.38465">
        <ele>703</ele>
        <time>2026-02-18T13:08:08Z</time>
      </trkpt>
      <trkpt lat="43.58511" lon="6.38448">
        <ele>701</ele>
        <time>2026-02-18T13:08:30Z</time>
      </trkpt>
      <trkpt lat="43.58504" lon="6.38437">
        <ele>701</ele>
        <time>2026-02-18T13:08:40Z</time>
      </trkpt>
      <trkpt lat="43.585" lon="6.38431">
        <ele>701</ele>
        <time>2026-02-18T13:08:48Z</time>
      </trkpt>
      <trkpt lat="43.58473" lon="6.38415">
        <ele>705</ele>
        <time>2026-02-18T13:09:26Z</time>
      </trkpt>
      <trkpt lat="43.58451" lon="6.38407">
        <ele>711</ele>
        <time>2026-02-18T13:10:02Z</time>
      </trkpt>
      <trkpt lat="43.58435" lon="6.38405">
        <ele>712</ele>
        <time>2026-02-18T13:10:32Z</time>
      </trkpt>
      <trkpt lat="43.58414" lon="6.3841">
        <ele>711</ele>
        <time>2026-02-18T13:11:02Z</time>
      </trkpt>
      <trkpt lat="43.58404" lon="6.38414">
        <ele>711</ele>
        <time>2026-02-18T13:11:08Z</time>
      </trkpt>
      <trkpt lat="43.58394" lon="6.38421">
        <ele>709</ele>
        <time>2026-02-18T13:11:20Z</time>
      </trkpt>
      <trkpt lat="43.5837" lon="6.38452">
        <ele>707</ele>
        <time>2026-02-18T13:11:54Z</time>
      </trkpt>
      <trkpt lat="43.58366" lon="6.38458">
        <ele>708</ele>
        <time>2026-02-18T13:12:10Z</time>
      </trkpt>
      <trkpt lat="43.58347" lon="6.38475">
        <ele>708</ele>
        <time>2026-02-18T13:12:34Z</time>
      </trkpt>
      <trkpt lat="43.58344" lon="6.38479">
        <ele>708</ele>
        <time>2026-02-18T13:12:40Z</time>
      </trkpt>
      <trkpt lat="43.58338" lon="6.38488">
        <ele>709</ele>
        <time>2026-02-18T13:12:52Z</time>
      </trkpt>
      <trkpt lat="43.58331" lon="6.38495">
        <ele>711</ele>
        <time>2026-02-18T13:13:22Z</time>
      </trkpt>
      <trkpt lat="43.58326" lon="6.38498">
        <ele>711</ele>
        <time>2026-02-18T13:13:30Z</time>
      </trkpt>
      <trkpt lat="43.58317" lon="6.38504">
        <ele>712</ele>
        <time>2026-02-18T13:13:56Z</time>
      </trkpt>
      <trkpt lat="43.5831" lon="6.38507">
        <ele>712</ele>
        <time>2026-02-18T13:14:44Z</time>
      </trkpt>
      <trkpt lat="43.58306" lon="6.38509">
        <ele>712</ele>
        <time>2026-02-18T13:14:48Z</time>
      </trkpt>
      <trkpt lat="43.58301" lon="6.3851">
        <ele>712</ele>
        <time>2026-02-18T13:14:54Z</time>
      </trkpt>
      <trkpt lat="43.58295" lon="6.38512">
        <ele>712</ele>
        <time>2026-02-18T13:14:58Z</time>
      </trkpt>
      <trkpt lat="43.58273" lon="6.38524">
        <ele>715</ele>
        <time>2026-02-18T13:15:22Z</time>
      </trkpt>
      <trkpt lat="43.58268" lon="6.38527">
        <ele>716</ele>
        <time>2026-02-18T13:15:26Z</time>
      </trkpt>
      <trkpt lat="43.58251" lon="6.38538">
        <ele>718</ele>
        <time>2026-02-18T13:15:56Z</time>
      </trkpt>
      <trkpt lat="43.58245" lon="6.38541">
        <ele>719</ele>
        <time>2026-02-18T13:16:00Z</time>
      </trkpt>
      <trkpt lat="43.58227" lon="6.38552">
        <ele>724</ele>
        <time>2026-02-18T13:16:30Z</time>
      </trkpt>
      <trkpt lat="43.58205" lon="6.38567">
        <ele>730</ele>
        <time>2026-02-18T13:17:02Z</time>
      </trkpt>
      <trkpt lat="43.58201" lon="6.3857">
        <ele>730</ele>
        <time>2026-02-18T13:17:10Z</time>
      </trkpt>
      <trkpt lat="43.58197" lon="6.38572">
        <ele>732</ele>
        <time>2026-02-18T13:17:24Z</time>
      </trkpt>
      <trkpt lat="43.58186" lon="6.38575">
        <ele>732</ele>
        <time>2026-02-18T13:17:46Z</time>
      </trkpt>
      <trkpt lat="43.58172" lon="6.38572">
        <ele>736</ele>
        <time>2026-02-18T13:18:06Z</time>
      </trkpt>
      <trkpt lat="43.58162" lon="6.38569">
        <ele>738</ele>
        <time>2026-02-18T13:18:38Z</time>
      </trkpt>
      <trkpt lat="43.58145" lon="6.38567">
        <ele>740</ele>
        <time>2026-02-18T13:19:12Z</time>
      </trkpt>
      <trkpt lat="43.5814" lon="6.38566">
        <ele>742</ele>
        <time>2026-02-18T13:19:18Z</time>
      </trkpt>
      <trkpt lat="43.58131" lon="6.38565">
        <ele>745</ele>
        <time>2026-02-18T13:19:36Z</time>
      </trkpt>
      <trkpt lat="43.58127" lon="6.38562">
        <ele>746</ele>
        <time>2026-02-18T13:19:46Z</time>
      </trkpt>
      <trkpt lat="43.58119" lon="6.38558">
        <ele>747</ele>
        <time>2026-02-18T13:21:12Z</time>
      </trkpt>
      <trkpt lat="43.58107" lon="6.38555">
        <ele>749</ele>
        <time>2026-02-18T13:21:18Z</time>
      </trkpt>
      <trkpt lat="43.58102" lon="6.38554">
        <ele>749</ele>
        <time>2026-02-18T13:21:20Z</time>
      </trkpt>
      <trkpt lat="43.58092" lon="6.38553">
        <ele>749</ele>
        <time>2026-02-18T13:21:30Z</time>
      </trkpt>
      <trkpt lat="43.58078" lon="6.3856">
        <ele>753</ele>
        <time>2026-02-18T13:21:50Z</time>
      </trkpt>
      <trkpt lat="43.58073" lon="6.38562">
        <ele>754</ele>
        <time>2026-02-18T13:22:58Z</time>
      </trkpt>
      <trkpt lat="43.58069" lon="6.38564">
        <ele>756</ele>
        <time>2026-02-18T13:24:12Z</time>
      </trkpt>
      <trkpt lat="43.58064" lon="6.38566">
        <ele>756</ele>
        <time>2026-02-18T13:27:14Z</time>
      </trkpt>
      <trkpt lat="43.58059" lon="6.38567">
        <ele>757</ele>
        <time>2026-02-18T13:27:22Z</time>
      </trkpt>
      <trkpt lat="43.58054" lon="6.38567">
        <ele>757</ele>
        <time>2026-02-18T13:27:28Z</time>
      </trkpt>
      <trkpt lat="43.58041" lon="6.3856">
        <ele>758</ele>
        <time>2026-02-18T13:27:40Z</time>
      </trkpt>
      <trkpt lat="43.58037" lon="6.38557">
        <ele>758</ele>
        <time>2026-02-18T13:27:48Z</time>
      </trkpt>
      <trkpt lat="43.58032" lon="6.38552">
        <ele>758</ele>
        <time>2026-02-18T13:28:06Z</time>
      </trkpt>
      <trkpt lat="43.58029" lon="6.38547">
        <ele>760</ele>
        <time>2026-02-18T13:28:30Z</time>
      </trkpt>
      <trkpt lat="43.58029" lon="6.38541">
        <ele>760</ele>
        <time>2026-02-18T13:28:48Z</time>
      </trkpt>
      <trkpt lat="43.58029" lon="6.38533">
        <ele>762</ele>
        <time>2026-02-18T13:28:54Z</time>
      </trkpt>
      <trkpt lat="43.5803" lon="6.38527">
        <ele>762</ele>
        <time>2026-02-18T13:29:06Z</time>
      </trkpt>
      <trkpt lat="43.58031" lon="6.3852">
        <ele>763</ele>
        <time>2026-02-18T13:29:42Z</time>
      </trkpt>
      <trkpt lat="43.58035" lon="6.38474">
        <ele>763</ele>
        <time>2026-02-18T13:31:48Z</time>
      </trkpt>
      <trkpt lat="43.58039" lon="6.38452">
        <ele>765</ele>
        <time>2026-02-18T13:31:50Z</time>
      </trkpt>
      <trkpt lat="43.58047" lon="6.38435">
        <ele>766</ele>
        <time>2026-02-18T13:31:54Z</time>
      </trkpt>
      <trkpt lat="43.58049" lon="6.38426">
        <ele>766</ele>
        <time>2026-02-18T13:32:08Z</time>
      </trkpt>
      <trkpt lat="43.58053" lon="6.38412">
        <ele>768</ele>
        <time>2026-02-18T13:32:24Z</time>
      </trkpt>
      <trkpt lat="43.58061" lon="6.38391">
        <ele>774</ele>
        <time>2026-02-18T13:32:38Z</time>
      </trkpt>
      <trkpt lat="43.58078" lon="6.38372">
        <ele>779</ele>
        <time>2026-02-18T13:33:34Z</time>
      </trkpt>
      <trkpt lat="43.58105" lon="6.38343">
        <ele>785</ele>
        <time>2026-02-18T13:34:06Z</time>
      </trkpt>
      <trkpt lat="43.58109" lon="6.38338">
        <ele>785</ele>
        <time>2026-02-18T13:34:12Z</time>
      </trkpt>
      <trkpt lat="43.58114" lon="6.38327">
        <ele>785</ele>
        <time>2026-02-18T13:34:22Z</time>
      </trkpt>
      <trkpt lat="43.58116" lon="6.38319">
        <ele>785</ele>
        <time>2026-02-18T13:34:28Z</time>
      </trkpt>
      <trkpt lat="43.58123" lon="6.38283">
        <ele>788</ele>
        <time>2026-02-18T13:35:00Z</time>
      </trkpt>
      <trkpt lat="43.58123" lon="6.38272">
        <ele>790</ele>
        <time>2026-02-18T13:35:10Z</time>
      </trkpt>
      <trkpt lat="43.58127" lon="6.38237">
        <ele>794</ele>
        <time>2026-02-18T13:35:40Z</time>
      </trkpt>
      <trkpt lat="43.5814" lon="6.38199">
        <ele>793</ele>
        <time>2026-02-18T13:36:08Z</time>
      </trkpt>
      <trkpt lat="43.58136" lon="6.38197">
        <ele>792</ele>
        <time>2026-02-18T13:36:32Z</time>
      </trkpt>
      <trkpt lat="43.58134" lon="6.38174">
        <ele>789</ele>
        <time>2026-02-18T13:36:46Z</time>
      </trkpt>
      <trkpt lat="43.58135" lon="6.3816">
        <ele>788</ele>
        <time>2026-02-18T13:36:56Z</time>
      </trkpt>
      <trkpt lat="43.58136" lon="6.38137">
        <ele>788</ele>
        <time>2026-02-18T13:37:14Z</time>
      </trkpt>
      <trkpt lat="43.58138" lon="6.38127">
        <ele>789</ele>
        <time>2026-02-18T13:37:22Z</time>
      </trkpt>
      <trkpt lat="43.58142" lon="6.38115">
        <ele>788</ele>
        <time>2026-02-18T13:37:30Z</time>
      </trkpt>
      <trkpt lat="43.58151" lon="6.38079">
        <ele>787</ele>
        <time>2026-02-18T13:38:00Z</time>
      </trkpt>
      <trkpt lat="43.58153" lon="6.38069">
        <ele>787</ele>
        <time>2026-02-18T13:38:08Z</time>
      </trkpt>
      <trkpt lat="43.58157" lon="6.38063">
        <ele>788</ele>
        <time>2026-02-18T13:38:14Z</time>
      </trkpt>
      <trkpt lat="43.58166" lon="6.38033">
        <ele>789</ele>
        <time>2026-02-18T13:38:46Z</time>
      </trkpt>
      <trkpt lat="43.58174" lon="6.38021">
        <ele>791</ele>
        <time>2026-02-18T13:38:58Z</time>
      </trkpt>
      <trkpt lat="43.58172" lon="6.3801">
        <ele>791</ele>
        <time>2026-02-18T13:39:20Z</time>
      </trkpt>
      <trkpt lat="43.58172" lon="6.37996">
        <ele>791</ele>
        <time>2026-02-18T13:39:30Z</time>
      </trkpt>
      <trkpt lat="43.58171" lon="6.37983">
        <ele>791</ele>
        <time>2026-02-18T13:39:40Z</time>
      </trkpt>
      <trkpt lat="43.58172" lon="6.37968">
        <ele>792</ele>
        <time>2026-02-18T13:39:52Z</time>
      </trkpt>
      <trkpt lat="43.58173" lon="6.37951">
        <ele>793</ele>
        <time>2026-02-18T13:40:04Z</time>
      </trkpt>
      <trkpt lat="43.58179" lon="6.37939">
        <ele>793</ele>
        <time>2026-02-18T13:40:18Z</time>
      </trkpt>
      <trkpt lat="43.58176" lon="6.37953">
        <ele>793</ele>
        <time>2026-02-18T13:41:04Z</time>
      </trkpt>
      <trkpt lat="43.5818" lon="6.37946">
        <ele>793</ele>
        <time>2026-02-18T13:45:38Z</time>
      </trkpt>
      <trkpt lat="43.58192" lon="6.37924">
        <ele>798</ele>
        <time>2026-02-18T13:46:32Z</time>
      </trkpt>
      <trkpt lat="43.58202" lon="6.37908">
        <ele>799</ele>
        <time>2026-02-18T13:46:52Z</time>
      </trkpt>
      <trkpt lat="43.58213" lon="6.37889">
        <ele>801</ele>
        <time>2026-02-18T13:47:14Z</time>
      </trkpt>
      <trkpt lat="43.58216" lon="6.37884">
        <ele>801</ele>
        <time>2026-02-18T13:47:20Z</time>
      </trkpt>
      <trkpt lat="43.58225" lon="6.37867">
        <ele>804</ele>
        <time>2026-02-18T13:47:44Z</time>
      </trkpt>
      <trkpt lat="43.58239" lon="6.37845">
        <ele>806</ele>
        <time>2026-02-18T13:48:00Z</time>
      </trkpt>
      <trkpt lat="43.58242" lon="6.37841">
        <ele>807</ele>
        <time>2026-02-18T13:48:16Z</time>
      </trkpt>
      <trkpt lat="43.58246" lon="6.37834">
        <ele>808</ele>
        <time>2026-02-18T13:49:52Z</time>
      </trkpt>
      <trkpt lat="43.58262" lon="6.37809">
        <ele>813</ele>
        <time>2026-02-18T13:50:24Z</time>
      </trkpt>
      <trkpt lat="43.58266" lon="6.37805">
        <ele>813</ele>
        <time>2026-02-18T13:50:32Z</time>
      </trkpt>
      <trkpt lat="43.58277" lon="6.37789">
        <ele>814</ele>
        <time>2026-02-18T13:50:52Z</time>
      </trkpt>
      <trkpt lat="43.58283" lon="6.37776">
        <ele>814</ele>
        <time>2026-02-18T13:50:58Z</time>
      </trkpt>
      <trkpt lat="43.58303" lon="6.37747">
        <ele>812</ele>
        <time>2026-02-18T13:51:28Z</time>
      </trkpt>
      <trkpt lat="43.58306" lon="6.37737">
        <ele>813</ele>
        <time>2026-02-18T13:51:54Z</time>
      </trkpt>
      <trkpt lat="43.58311" lon="6.37727">
        <ele>813</ele>
        <time>2026-02-18T13:52:02Z</time>
      </trkpt>
      <trkpt lat="43.58315" lon="6.37718">
        <ele>813</ele>
        <time>2026-02-18T13:52:12Z</time>
      </trkpt>
      <trkpt lat="43.58322" lon="6.37708">
        <ele>814</ele>
        <time>2026-02-18T13:52:30Z</time>
      </trkpt>
      <trkpt lat="43.5833" lon="6.37701">
        <ele>816</ele>
        <time>2026-02-18T13:52:50Z</time>
      </trkpt>
      <trkpt lat="43.58339" lon="6.37694">
        <ele>817</ele>
        <time>2026-02-18T13:53:32Z</time>
      </trkpt>
      <trkpt lat="43.58344" lon="6.37691">
        <ele>818</ele>
        <time>2026-02-18T13:53:36Z</time>
      </trkpt>
      <trkpt lat="43.58348" lon="6.37688">
        <ele>818</ele>
        <time>2026-02-18T13:53:48Z</time>
      </trkpt>
      <trkpt lat="43.58354" lon="6.37683">
        <ele>820</ele>
        <time>2026-02-18T13:53:54Z</time>
      </trkpt>
      <trkpt lat="43.58359" lon="6.37679">
        <ele>821</ele>
        <time>2026-02-18T13:53:58Z</time>
      </trkpt>
      <trkpt lat="43.58365" lon="6.37676">
        <ele>822</ele>
        <time>2026-02-18T13:54:02Z</time>
      </trkpt>
      <trkpt lat="43.58369" lon="6.37673">
        <ele>822</ele>
        <time>2026-02-18T13:54:10Z</time>
      </trkpt>
      <trkpt lat="43.58381" lon="6.37662">
        <ele>821</ele>
        <time>2026-02-18T13:54:34Z</time>
      </trkpt>
      <trkpt lat="43.58386" lon="6.37658">
        <ele>821</ele>
        <time>2026-02-18T13:54:40Z</time>
      </trkpt>
      <trkpt lat="43.58402" lon="6.37641">
        <ele>822</ele>
        <time>2026-02-18T13:54:58Z</time>
      </trkpt>
      <trkpt lat="43.5841" lon="6.37623">
        <ele>824</ele>
        <time>2026-02-18T13:55:26Z</time>
      </trkpt>
      <trkpt lat="43.5842" lon="6.37608">
        <ele>827</ele>
        <time>2026-02-18T13:56:02Z</time>
      </trkpt>
      <trkpt lat="43.58431" lon="6.37581">
        <ele>830</ele>
        <time>2026-02-18T13:56:28Z</time>
      </trkpt>
      <trkpt lat="43.58434" lon="6.37575">
        <ele>830</ele>
        <time>2026-02-18T13:56:34Z</time>
      </trkpt>
      <trkpt lat="43.58437" lon="6.37567">
        <ele>830</ele>
        <time>2026-02-18T13:57:06Z</time>
      </trkpt>
      <trkpt lat="43.5844" lon="6.3756">
        <ele>831</ele>
        <time>2026-02-18T13:57:12Z</time>
      </trkpt>
      <trkpt lat="43.58446" lon="6.37544">
        <ele>834</ele>
        <time>2026-02-18T13:57:32Z</time>
      </trkpt>
      <trkpt lat="43.58459" lon="6.37508">
        <ele>837</ele>
        <time>2026-02-18T13:58:04Z</time>
      </trkpt>
      <trkpt lat="43.58466" lon="6.37489">
        <ele>840</ele>
        <time>2026-02-18T13:58:28Z</time>
      </trkpt>
      <trkpt lat="43.58479" lon="6.37467">
        <ele>841</ele>
        <time>2026-02-18T13:59:04Z</time>
      </trkpt>
      <trkpt lat="43.58482" lon="6.37462">
        <ele>841</ele>
        <time>2026-02-18T13:59:10Z</time>
      </trkpt>
      <trkpt lat="43.58486" lon="6.37457">
        <ele>842</ele>
        <time>2026-02-18T13:59:18Z</time>
      </trkpt>
      <trkpt lat="43.58499" lon="6.37426">
        <ele>843</ele>
        <time>2026-02-18T13:59:46Z</time>
      </trkpt>
      <trkpt lat="43.58504" lon="6.37412">
        <ele>842</ele>
        <time>2026-02-18T14:00:00Z</time>
      </trkpt>
      <trkpt lat="43.58506" lon="6.37403">
        <ele>843</ele>
        <time>2026-02-18T14:00:52Z</time>
      </trkpt>
      <trkpt lat="43.58516" lon="6.37369">
        <ele>843</ele>
        <time>2026-02-18T14:01:22Z</time>
      </trkpt>
      <trkpt lat="43.58517" lon="6.37357">
        <ele>842</ele>
        <time>2026-02-18T14:01:28Z</time>
      </trkpt>
      <trkpt lat="43.58515" lon="6.37349">
        <ele>842</ele>
        <time>2026-02-18T14:01:32Z</time>
      </trkpt>
      <trkpt lat="43.58518" lon="6.37343">
        <ele>842</ele>
        <time>2026-02-18T14:01:36Z</time>
      </trkpt>
      <trkpt lat="43.58515" lon="6.37335">
        <ele>842</ele>
        <time>2026-02-18T14:01:50Z</time>
      </trkpt>
      <trkpt lat="43.58516" lon="6.3732">
        <ele>842</ele>
        <time>2026-02-18T14:02:00Z</time>
      </trkpt>
      <trkpt lat="43.58514" lon="6.37315">
        <ele>842</ele>
        <time>2026-02-18T14:02:08Z</time>
      </trkpt>
      <trkpt lat="43.58514" lon="6.37309">
        <ele>842</ele>
        <time>2026-02-18T14:02:12Z</time>
      </trkpt>
      <trkpt lat="43.58511" lon="6.37288">
        <ele>841</ele>
        <time>2026-02-18T14:02:24Z</time>
      </trkpt>
      <trkpt lat="43.5851" lon="6.37269">
        <ele>842</ele>
        <time>2026-02-18T14:02:36Z</time>
      </trkpt>
      <trkpt lat="43.58512" lon="6.37263">
        <ele>841</ele>
        <time>2026-02-18T14:02:42Z</time>
      </trkpt>
      <trkpt lat="43.58521" lon="6.37254">
        <ele>839</ele>
        <time>2026-02-18T14:03:02Z</time>
      </trkpt>
      <trkpt lat="43.58532" lon="6.37212">
        <ele>842</ele>
        <time>2026-02-18T14:03:34Z</time>
      </trkpt>
      <trkpt lat="43.58534" lon="6.37204">
        <ele>842</ele>
        <time>2026-02-18T14:03:40Z</time>
      </trkpt>
      <trkpt lat="43.58538" lon="6.37158">
        <ele>840</ele>
        <time>2026-02-18T14:04:12Z</time>
      </trkpt>
      <trkpt lat="43.58538" lon="6.37151">
        <ele>841</ele>
        <time>2026-02-18T14:04:18Z</time>
      </trkpt>
      <trkpt lat="43.58539" lon="6.37139">
        <ele>841</ele>
        <time>2026-02-18T14:04:28Z</time>
      </trkpt>
      <trkpt lat="43.58542" lon="6.37112">
        <ele>842</ele>
        <time>2026-02-18T14:04:56Z</time>
      </trkpt>
      <trkpt lat="43.58544" lon="6.37104">
        <ele>845</ele>
        <time>2026-02-18T14:05:06Z</time>
      </trkpt>
      <trkpt lat="43.58548" lon="6.37073">
        <ele>846</ele>
        <time>2026-02-18T14:05:34Z</time>
      </trkpt>
      <trkpt lat="43.58548" lon="6.37064">
        <ele>846</ele>
        <time>2026-02-18T14:05:40Z</time>
      </trkpt>
      <trkpt lat="43.58546" lon="6.37054">
        <ele>848</ele>
        <time>2026-02-18T14:05:50Z</time>
      </trkpt>
      <trkpt lat="43.58543" lon="6.37049">
        <ele>848</ele>
        <time>2026-02-18T14:05:56Z</time>
      </trkpt>
      <trkpt lat="43.58544" lon="6.37043">
        <ele>850</ele>
        <time>2026-02-18T14:07:04Z</time>
      </trkpt>
      <trkpt lat="43.58543" lon="6.37035">
        <ele>851</ele>
        <time>2026-02-18T14:07:10Z</time>
      </trkpt>
      <trkpt lat="43.58541" lon="6.37015">
        <ele>851</ele>
        <time>2026-02-18T14:07:20Z</time>
      </trkpt>
      <trkpt lat="43.58541" lon="6.37007">
        <ele>851</ele>
        <time>2026-02-18T14:07:26Z</time>
      </trkpt>
      <trkpt lat="43.58544" lon="6.37002">
        <ele>851</ele>
        <time>2026-02-18T14:07:30Z</time>
      </trkpt>
      <trkpt lat="43.5854" lon="6.37">
        <ele>851</ele>
        <time>2026-02-18T14:08:02Z</time>
      </trkpt>
      <trkpt lat="43.58539" lon="6.36994">
        <ele>852</ele>
        <time>2026-02-18T14:08:10Z</time>
      </trkpt>
      <trkpt lat="43.58537" lon="6.36986">
        <ele>852</ele>
        <time>2026-02-18T14:08:44Z</time>
      </trkpt>
      <trkpt lat="43.58537" lon="6.36973">
        <ele>852</ele>
        <time>2026-02-18T14:09:12Z</time>
      </trkpt>
      <trkpt lat="43.58536" lon="6.36967">
        <ele>852</ele>
        <time>2026-02-18T14:09:18Z</time>
      </trkpt>
      <trkpt lat="43.58535" lon="6.36961">
        <ele>852</ele>
        <time>2026-02-18T14:09:30Z</time>
      </trkpt>
      <trkpt lat="43.58532" lon="6.36917">
        <ele>852</ele>
        <time>2026-02-18T14:10:00Z</time>
      </trkpt>
      <trkpt lat="43.58533" lon="6.36879">
        <ele>853</ele>
        <time>2026-02-18T14:10:30Z</time>
      </trkpt>
      <trkpt lat="43.58535" lon="6.36844">
        <ele>850</ele>
        <time>2026-02-18T14:11:00Z</time>
      </trkpt>
      <trkpt lat="43.58533" lon="6.36806">
        <ele>851</ele>
        <time>2026-02-18T14:11:28Z</time>
      </trkpt>
      <trkpt lat="43.58542" lon="6.36763">
        <ele>851</ele>
        <time>2026-02-18T14:12:00Z</time>
      </trkpt>
      <trkpt lat="43.58542" lon="6.36757">
        <ele>851</ele>
        <time>2026-02-18T14:12:04Z</time>
      </trkpt>
      <trkpt lat="43.5854" lon="6.36756">
        <ele>853</ele>
        <time>2026-02-18T14:12:36Z</time>
      </trkpt>
      <trkpt lat="43.58539" lon="6.36749">
        <ele>853</ele>
        <time>2026-02-18T14:14:04Z</time>
      </trkpt>
      <trkpt lat="43.5854" lon="6.36727">
        <ele>853</ele>
        <time>2026-02-18T14:14:14Z</time>
      </trkpt>
      <trkpt lat="43.58539" lon="6.36733">
        <ele>853</ele>
        <time>2026-02-18T14:14:24Z</time>
      </trkpt>
      <trkpt lat="43.5854" lon="6.36732">
        <ele>852</ele>
        <time>2026-02-18T14:15:26Z</time>
      </trkpt>
      <trkpt lat="43.5854" lon="6.36723">
        <ele>852</ele>
        <time>2026-02-18T14:15:32Z</time>
      </trkpt>
      <trkpt lat="43.58543" lon="6.36702">
        <ele>850</ele>
        <time>2026-02-18T14:15:46Z</time>
      </trkpt>
      <trkpt lat="43.58544" lon="6.36695">
        <ele>849</ele>
        <time>2026-02-18T14:15:50Z</time>
      </trkpt>
      <trkpt lat="43.58544" lon="6.36688">
        <ele>847</ele>
        <time>2026-02-18T14:16:00Z</time>
      </trkpt>
      <trkpt lat="43.58541" lon="6.36681">
        <ele>845</ele>
        <time>2026-02-18T14:16:06Z</time>
      </trkpt>
      <trkpt lat="43.5854" lon="6.36667">
        <ele>844</ele>
        <time>2026-02-18T14:16:16Z</time>
      </trkpt>
      <trkpt lat="43.58543" lon="6.3666">
        <ele>844</ele>
        <time>2026-02-18T14:16:20Z</time>
      </trkpt>
      <trkpt lat="43.58551" lon="6.36648">
        <ele>846</ele>
        <time>2026-02-18T14:16:28Z</time>
      </trkpt>
      <trkpt lat="43.58567" lon="6.36642">
        <ele>846</ele>
        <time>2026-02-18T14:16:48Z</time>
      </trkpt>
      <trkpt lat="43.58568" lon="6.36635">
        <ele>847</ele>
        <time>2026-02-18T14:17:00Z</time>
      </trkpt>
      <trkpt lat="43.58574" lon="6.36624">
        <ele>846</ele>
        <time>2026-02-18T14:17:10Z</time>
      </trkpt>
      <trkpt lat="43.58575" lon="6.36616">
        <ele>846</ele>
        <time>2026-02-18T14:17:14Z</time>
      </trkpt>
      <trkpt lat="43.5858" lon="6.36595">
        <ele>847</ele>
        <time>2026-02-18T14:17:28Z</time>
      </trkpt>
      <trkpt lat="43.58583" lon="6.36581">
        <ele>846</ele>
        <time>2026-02-18T14:17:40Z</time>
      </trkpt>
      <trkpt lat="43.58585" lon="6.36562">
        <ele>844</ele>
        <time>2026-02-18T14:17:56Z</time>
      </trkpt>
      <trkpt lat="43.58584" lon="6.36556">
        <ele>843</ele>
        <time>2026-02-18T14:18:06Z</time>
      </trkpt>
      <trkpt lat="43.58594" lon="6.36522">
        <ele>843</ele>
        <time>2026-02-18T14:18:42Z</time>
      </trkpt>
      <trkpt lat="43.58598" lon="6.36516">
        <ele>843</ele>
        <time>2026-02-18T14:18:46Z</time>
      </trkpt>
      <trkpt lat="43.586" lon="6.36504">
        <ele>842</ele>
        <time>2026-02-18T14:18:56Z</time>
      </trkpt>
      <trkpt lat="43.58608" lon="6.36467">
        <ele>837</ele>
        <time>2026-02-18T14:19:26Z</time>
      </trkpt>
      <trkpt lat="43.58613" lon="6.36441">
        <ele>834</ele>
        <time>2026-02-18T14:19:52Z</time>
      </trkpt>
      <trkpt lat="43.58616" lon="6.36435">
        <ele>833</ele>
        <time>2026-02-18T14:20:02Z</time>
      </trkpt>
      <trkpt lat="43.58619" lon="6.36428">
        <ele>833</ele>
        <time>2026-02-18T14:20:08Z</time>
      </trkpt>
      <trkpt lat="43.58618" lon="6.3642">
        <ele>833</ele>
        <time>2026-02-18T14:20:14Z</time>
      </trkpt>
      <trkpt lat="43.58615" lon="6.36415">
        <ele>833</ele>
        <time>2026-02-18T14:20:18Z</time>
      </trkpt>
      <trkpt lat="43.58617" lon="6.36406">
        <ele>833</ele>
        <time>2026-02-18T14:20:22Z</time>
      </trkpt>
      <trkpt lat="43.58621" lon="6.36415">
        <ele>833</ele>
        <time>2026-02-18T14:20:26Z</time>
      </trkpt>
      <trkpt lat="43.58611" lon="6.36428">
        <ele>835</ele>
        <time>2026-02-18T14:21:14Z</time>
      </trkpt>
      <trkpt lat="43.58615" lon="6.36424">
        <ele>835</ele>
        <time>2026-02-18T14:21:34Z</time>
      </trkpt>
      <trkpt lat="43.58627" lon="6.36402">
        <ele>835</ele>
        <time>2026-02-18T14:22:00Z</time>
      </trkpt>
      <trkpt lat="43.58638" lon="6.36385">
        <ele>835</ele>
        <time>2026-02-18T14:22:34Z</time>
      </trkpt>
      <trkpt lat="43.58642" lon="6.3638">
        <ele>835</ele>
        <time>2026-02-18T14:22:54Z</time>
      </trkpt>
      <trkpt lat="43.58653" lon="6.36371">
        <ele>835</ele>
        <time>2026-02-18T14:23:12Z</time>
      </trkpt>
      <trkpt lat="43.58673" lon="6.36357">
        <ele>836</ele>
        <time>2026-02-18T14:23:42Z</time>
      </trkpt>
      <trkpt lat="43.58679" lon="6.36353">
        <ele>836</ele>
        <time>2026-02-18T14:23:48Z</time>
      </trkpt>
      <trkpt lat="43.58682" lon="6.36348">
        <ele>835</ele>
        <time>2026-02-18T14:23:54Z</time>
      </trkpt>
      <trkpt lat="43.58698" lon="6.36335">
        <ele>833</ele>
        <time>2026-02-18T14:24:12Z</time>
      </trkpt>
      <trkpt lat="43.587" lon="6.36327">
        <ele>832</ele>
        <time>2026-02-18T14:24:18Z</time>
      </trkpt>
      <trkpt lat="43.58704" lon="6.36323">
        <ele>831</ele>
        <time>2026-02-18T14:24:24Z</time>
      </trkpt>
      <trkpt lat="43.58718" lon="6.36316">
        <ele>831</ele>
        <time>2026-02-18T14:24:42Z</time>
      </trkpt>
      <trkpt lat="43.58722" lon="6.36313">
        <ele>830</ele>
        <time>2026-02-18T14:24:50Z</time>
      </trkpt>
      <trkpt lat="43.58725" lon="6.36307">
        <ele>829</ele>
        <time>2026-02-18T14:24:56Z</time>
      </trkpt>
      <trkpt lat="43.58727" lon="6.363">
        <ele>826</ele>
        <time>2026-02-18T14:25:02Z</time>
      </trkpt>
      <trkpt lat="43.58735" lon="6.36288">
        <ele>823</ele>
        <time>2026-02-18T14:25:10Z</time>
      </trkpt>
      <trkpt lat="43.58741" lon="6.3629">
        <ele>822</ele>
        <time>2026-02-18T14:25:14Z</time>
      </trkpt>
      <trkpt lat="43.5874" lon="6.36298">
        <ele>822</ele>
        <time>2026-02-18T14:25:18Z</time>
      </trkpt>
      <trkpt lat="43.58734" lon="6.36297">
        <ele>822</ele>
        <time>2026-02-18T14:25:22Z</time>
      </trkpt>
      <trkpt lat="43.58735" lon="6.36295">
        <ele>822</ele>
        <time>2026-02-18T14:29:08Z</time>
      </trkpt>
      <trkpt lat="43.58744" lon="6.36303">
        <ele>824</ele>
        <time>2026-02-18T14:29:26Z</time>
      </trkpt>
      <trkpt lat="43.58748" lon="6.36305">
        <ele>824</ele>
        <time>2026-02-18T14:29:32Z</time>
      </trkpt>
      <trkpt lat="43.58754" lon="6.36308">
        <ele>824</ele>
        <time>2026-02-18T14:29:42Z</time>
      </trkpt>
      <trkpt lat="43.58759" lon="6.36309">
        <ele>823</ele>
        <time>2026-02-18T14:31:20Z</time>
      </trkpt>
      <trkpt lat="43.58766" lon="6.36306">
        <ele>821</ele>
        <time>2026-02-18T14:31:26Z</time>
      </trkpt>
      <trkpt lat="43.58777" lon="6.36306">
        <ele>820</ele>
        <time>2026-02-18T14:31:36Z</time>
      </trkpt>
      <trkpt lat="43.58784" lon="6.36307">
        <ele>820</ele>
        <time>2026-02-18T14:31:50Z</time>
      </trkpt>
      <trkpt lat="43.58788" lon="6.36307">
        <ele>820</ele>
        <time>2026-02-18T14:31:58Z</time>
      </trkpt>
      <trkpt lat="43.58793" lon="6.36309">
        <ele>818</ele>
        <time>2026-02-18T14:32:30Z</time>
      </trkpt>
      <trkpt lat="43.58796" lon="6.36313">
        <ele>817</ele>
        <time>2026-02-18T14:32:36Z</time>
      </trkpt>
      <trkpt lat="43.58802" lon="6.36333">
        <ele>809</ele>
        <time>2026-02-18T14:32:52Z</time>
      </trkpt>
      <trkpt lat="43.58802" lon="6.3634">
        <ele>808</ele>
        <time>2026-02-18T14:32:56Z</time>
      </trkpt>
      <trkpt lat="43.58803" lon="6.36355">
        <ele>801</ele>
        <time>2026-02-18T14:33:14Z</time>
      </trkpt>
      <trkpt lat="43.58803" lon="6.36361">
        <ele>797</ele>
        <time>2026-02-18T14:33:20Z</time>
      </trkpt>
      <trkpt lat="43.58804" lon="6.3636">
        <ele>796</ele>
        <time>2026-02-18T14:33:40Z</time>
      </trkpt>
      <trkpt lat="43.588" lon="6.36365">
        <ele>794</ele>
        <time>2026-02-18T14:34:18Z</time>
      </trkpt>
      <trkpt lat="43.588" lon="6.36385">
        <ele>788</ele>
        <time>2026-02-18T14:34:32Z</time>
      </trkpt>
      <trkpt lat="43.58801" lon="6.36394">
        <ele>788</ele>
        <time>2026-02-18T14:34:36Z</time>
      </trkpt>
      <trkpt lat="43.58804" lon="6.36399">
        <ele>787</ele>
        <time>2026-02-18T14:34:40Z</time>
      </trkpt>
      <trkpt lat="43.58801" lon="6.36387">
        <ele>787</ele>
        <time>2026-02-18T14:35:06Z</time>
      </trkpt>
      <trkpt lat="43.58799" lon="6.36393">
        <ele>787</ele>
        <time>2026-02-18T14:36:30Z</time>
      </trkpt>
      <trkpt lat="43.58799" lon="6.36413">
        <ele>785</ele>
        <time>2026-02-18T14:36:48Z</time>
      </trkpt>
      <trkpt lat="43.58798" lon="6.36422">
        <ele>783</ele>
        <time>2026-02-18T14:36:52Z</time>
      </trkpt>
      <trkpt lat="43.58794" lon="6.36443">
        <ele>781</ele>
        <time>2026-02-18T14:37:12Z</time>
      </trkpt>
      <trkpt lat="43.58791" lon="6.36476">
        <ele>777</ele>
        <time>2026-02-18T14:37:42Z</time>
      </trkpt>
      <trkpt lat="43.58791" lon="6.36493">
        <ele>776</ele>
        <time>2026-02-18T14:37:54Z</time>
      </trkpt>
      <trkpt lat="43.58792" lon="6.36498">
        <ele>776</ele>
        <time>2026-02-18T14:38:36Z</time>
      </trkpt>
      <trkpt lat="43.58791" lon="6.36508">
        <ele>776</ele>
        <time>2026-02-18T14:38:42Z</time>
      </trkpt>
      <trkpt lat="43.58794" lon="6.36524">
        <ele>775</ele>
        <time>2026-02-18T14:38:56Z</time>
      </trkpt>
      <trkpt lat="43.58793" lon="6.36533">
        <ele>775</ele>
        <time>2026-02-18T14:39:02Z</time>
      </trkpt>
      <trkpt lat="43.5879" lon="6.36556">
        <ele>776</ele>
        <time>2026-02-18T14:39:34Z</time>
      </trkpt>
      <trkpt lat="43.5879" lon="6.36565">
        <ele>776</ele>
        <time>2026-02-18T14:39:40Z</time>
      </trkpt>
      <trkpt lat="43.58789" lon="6.3658">
        <ele>776</ele>
        <time>2026-02-18T14:39:52Z</time>
      </trkpt>
      <trkpt lat="43.58794" lon="6.36586">
        <ele>776</ele>
        <time>2026-02-18T14:40:08Z</time>
      </trkpt>
      <trkpt lat="43.5881" lon="6.36633">
        <ele>775</ele>
        <time>2026-02-18T14:40:40Z</time>
      </trkpt>
      <trkpt lat="43.58819" lon="6.36641">
        <ele>775</ele>
        <time>2026-02-18T14:41:12Z</time>
      </trkpt>
      <trkpt lat="43.58832" lon="6.36652">
        <ele>775</ele>
        <time>2026-02-18T14:41:22Z</time>
      </trkpt>
      <trkpt lat="43.58842" lon="6.36655">
        <ele>775</ele>
        <time>2026-02-18T14:41:44Z</time>
      </trkpt>
      <trkpt lat="43.58847" lon="6.36654">
        <ele>775</ele>
        <time>2026-02-18T14:41:52Z</time>
      </trkpt>
      <trkpt lat="43.58852" lon="6.36652">
        <ele>775</ele>
        <time>2026-02-18T14:42:00Z</time>
      </trkpt>
      <trkpt lat="43.58872" lon="6.36658">
        <ele>773</ele>
        <time>2026-02-18T14:42:22Z</time>
      </trkpt>
      <trkpt lat="43.58878" lon="6.3666">
        <ele>773</ele>
        <time>2026-02-18T14:42:26Z</time>
      </trkpt>
      <trkpt lat="43.58883" lon="6.36661">
        <ele>773</ele>
        <time>2026-02-18T14:42:30Z</time>
      </trkpt>
      <trkpt lat="43.58887" lon="6.36658">
        <ele>770</ele>
        <time>2026-02-18T14:42:40Z</time>
      </trkpt>
      <trkpt lat="43.58892" lon="6.36659">
        <ele>769</ele>
        <time>2026-02-18T14:42:46Z</time>
      </trkpt>
      <trkpt lat="43.58897" lon="6.36656">
        <ele>764</ele>
        <time>2026-02-18T14:42:54Z</time>
      </trkpt>
      <trkpt lat="43.589" lon="6.36656">
        <ele>764</ele>
        <time>2026-02-18T14:43:30Z</time>
      </trkpt>
      <trkpt lat="43.58906" lon="6.3666">
        <ele>764</ele>
        <time>2026-02-18T14:43:34Z</time>
      </trkpt>
      <trkpt lat="43.58908" lon="6.36665">
        <ele>764</ele>
        <time>2026-02-18T14:43:44Z</time>
      </trkpt>
      <trkpt lat="43.5891" lon="6.3668">
        <ele>764</ele>
        <time>2026-02-18T14:43:54Z</time>
      </trkpt>
      <trkpt lat="43.58906" lon="6.36686">
        <ele>764</ele>
        <time>2026-02-18T14:44:00Z</time>
      </trkpt>
      <trkpt lat="43.58907" lon="6.36686">
        <ele>763</ele>
        <time>2026-02-18T14:44:22Z</time>
      </trkpt>
      <trkpt lat="43.58906" lon="6.36713">
        <ele>759</ele>
        <time>2026-02-18T14:44:48Z</time>
      </trkpt>
      <trkpt lat="43.58907" lon="6.36713">
        <ele>758</ele>
        <time>2026-02-18T14:44:58Z</time>
      </trkpt>
      <trkpt lat="43.58915" lon="6.36731">
        <ele>757</ele>
        <time>2026-02-18T14:45:12Z</time>
      </trkpt>
      <trkpt lat="43.58918" lon="6.36737">
        <ele>757</ele>
        <time>2026-02-18T14:45:18Z</time>
      </trkpt>
      <trkpt lat="43.58921" lon="6.36742">
        <ele>757</ele>
        <time>2026-02-18T14:45:24Z</time>
      </trkpt>
      <trkpt lat="43.58922" lon="6.36747">
        <ele>757</ele>
        <time>2026-02-18T14:45:28Z</time>
      </trkpt>
      <trkpt lat="43.58932" lon="6.36761">
        <ele>757</ele>
        <time>2026-02-18T14:45:44Z</time>
      </trkpt>
      <trkpt lat="43.58935" lon="6.36765">
        <ele>757</ele>
        <time>2026-02-18T14:45:48Z</time>
      </trkpt>
      <trkpt lat="43.58941" lon="6.36766">
        <ele>756</ele>
        <time>2026-02-18T14:45:56Z</time>
      </trkpt>
      <trkpt lat="43.58945" lon="6.36764">
        <ele>755</ele>
        <time>2026-02-18T14:46:02Z</time>
      </trkpt>
      <trkpt lat="43.58949" lon="6.36763">
        <ele>754</ele>
        <time>2026-02-18T14:46:06Z</time>
      </trkpt>
      <trkpt lat="43.58966" lon="6.36782">
        <ele>751</ele>
        <time>2026-02-18T14:46:40Z</time>
      </trkpt>
      <trkpt lat="43.58965" lon="6.36796">
        <ele>745</ele>
        <time>2026-02-18T14:47:14Z</time>
      </trkpt>
      <trkpt lat="43.58965" lon="6.36813">
        <ele>743</ele>
        <time>2026-02-18T14:47:28Z</time>
      </trkpt>
      <trkpt lat="43.58966" lon="6.36822">
        <ele>743</ele>
        <time>2026-02-18T14:47:38Z</time>
      </trkpt>
      <trkpt lat="43.58969" lon="6.36827">
        <ele>743</ele>
        <time>2026-02-18T14:47:44Z</time>
      </trkpt>
      <trkpt lat="43.5898" lon="6.3683">
        <ele>743</ele>
        <time>2026-02-18T14:47:52Z</time>
      </trkpt>
      <trkpt lat="43.58988" lon="6.36808">
        <ele>741</ele>
        <time>2026-02-18T14:48:06Z</time>
      </trkpt>
      <trkpt lat="43.58989" lon="6.36798">
        <ele>740</ele>
        <time>2026-02-18T14:48:14Z</time>
      </trkpt>
      <trkpt lat="43.59001" lon="6.36781">
        <ele>736</ele>
        <time>2026-02-18T14:48:30Z</time>
      </trkpt>
      <trkpt lat="43.59005" lon="6.36778">
        <ele>734</ele>
        <time>2026-02-18T14:48:36Z</time>
      </trkpt>
      <trkpt lat="43.59021" lon="6.3677">
        <ele>730</ele>
        <time>2026-02-18T14:48:56Z</time>
      </trkpt>
      <trkpt lat="43.59024" lon="6.36764">
        <ele>730</ele>
        <time>2026-02-18T14:49:04Z</time>
      </trkpt>
      <trkpt lat="43.59029" lon="6.3676">
        <ele>730</ele>
        <time>2026-02-18T14:49:10Z</time>
      </trkpt>
      <trkpt lat="43.59033" lon="6.36754">
        <ele>730</ele>
        <time>2026-02-18T14:49:16Z</time>
      </trkpt>
      <trkpt lat="43.59037" lon="6.36749">
        <ele>729</ele>
        <time>2026-02-18T14:49:20Z</time>
      </trkpt>
      <trkpt lat="43.59036" lon="6.36742">
        <ele>728</ele>
        <time>2026-02-18T14:49:30Z</time>
      </trkpt>
      <trkpt lat="43.5904" lon="6.36737">
        <ele>726</ele>
        <time>2026-02-18T14:49:36Z</time>
      </trkpt>
      <trkpt lat="43.59045" lon="6.36736">
        <ele>725</ele>
        <time>2026-02-18T14:49:40Z</time>
      </trkpt>
      <trkpt lat="43.59053" lon="6.36734">
        <ele>724</ele>
        <time>2026-02-18T14:49:48Z</time>
      </trkpt>
      <trkpt lat="43.59056" lon="6.36729">
        <ele>724</ele>
        <time>2026-02-18T14:49:54Z</time>
      </trkpt>
      <trkpt lat="43.59055" lon="6.3672">
        <ele>722</ele>
        <time>2026-02-18T14:50:02Z</time>
      </trkpt>
      <trkpt lat="43.59057" lon="6.36709">
        <ele>721</ele>
        <time>2026-02-18T14:50:08Z</time>
      </trkpt>
      <trkpt lat="43.59057" lon="6.36702">
        <ele>720</ele>
        <time>2026-02-18T14:50:12Z</time>
      </trkpt>
      <trkpt lat="43.59058" lon="6.36689">
        <ele>719</ele>
        <time>2026-02-18T14:50:26Z</time>
      </trkpt>
      <trkpt lat="43.59061" lon="6.36683">
        <ele>718</ele>
        <time>2026-02-18T14:50:34Z</time>
      </trkpt>
      <trkpt lat="43.59064" lon="6.36676">
        <ele>716</ele>
        <time>2026-02-18T14:50:42Z</time>
      </trkpt>
      <trkpt lat="43.59067" lon="6.3667">
        <ele>714</ele>
        <time>2026-02-18T14:50:50Z</time>
      </trkpt>
      <trkpt lat="43.59072" lon="6.36665">
        <ele>714</ele>
        <time>2026-02-18T14:50:56Z</time>
      </trkpt>
      <trkpt lat="43.59076" lon="6.3666">
        <ele>714</ele>
        <time>2026-02-18T14:51:04Z</time>
      </trkpt>
      <trkpt lat="43.59082" lon="6.36659">
        <ele>714</ele>
        <time>2026-02-18T14:51:10Z</time>
      </trkpt>
      <trkpt lat="43.59108" lon="6.36651">
        <ele>710</ele>
        <time>2026-02-18T14:51:42Z</time>
      </trkpt>
      <trkpt lat="43.59114" lon="6.36654">
        <ele>709</ele>
        <time>2026-02-18T14:51:50Z</time>
      </trkpt>
      <trkpt lat="43.59122" lon="6.36658">
        <ele>709</ele>
        <time>2026-02-18T14:51:56Z</time>
      </trkpt>
      <trkpt lat="43.59126" lon="6.36663">
        <ele>708</ele>
        <time>2026-02-18T14:52:04Z</time>
      </trkpt>
      <trkpt lat="43.59132" lon="6.36666">
        <ele>708</ele>
        <time>2026-02-18T14:52:10Z</time>
      </trkpt>
      <trkpt lat="43.59136" lon="6.36672">
        <ele>707</ele>
        <time>2026-02-18T14:52:16Z</time>
      </trkpt>
      <trkpt lat="43.59138" lon="6.36666">
        <ele>706</ele>
        <time>2026-02-18T14:52:28Z</time>
      </trkpt>
      <trkpt lat="43.59143" lon="6.3666">
        <ele>705</ele>
        <time>2026-02-18T14:52:36Z</time>
      </trkpt>
      <trkpt lat="43.59148" lon="6.3666">
        <ele>704</ele>
        <time>2026-02-18T14:52:40Z</time>
      </trkpt>
      <trkpt lat="43.59156" lon="6.36656">
        <ele>703</ele>
        <time>2026-02-18T14:52:48Z</time>
      </trkpt>
      <trkpt lat="43.5916" lon="6.36652">
        <ele>702</ele>
        <time>2026-02-18T14:52:56Z</time>
      </trkpt>
      <trkpt lat="43.59165" lon="6.36641">
        <ele>702</ele>
        <time>2026-02-18T14:53:02Z</time>
      </trkpt>
      <trkpt lat="43.59165" lon="6.36635">
        <ele>703</ele>
        <time>2026-02-18T14:53:06Z</time>
      </trkpt>
      <trkpt lat="43.59168" lon="6.36627">
        <ele>702</ele>
        <time>2026-02-18T14:53:12Z</time>
      </trkpt>
      <trkpt lat="43.5917" lon="6.36618">
        <ele>703</ele>
        <time>2026-02-18T14:53:18Z</time>
      </trkpt>
      <trkpt lat="43.5917" lon="6.36619">
        <ele>703</ele>
        <time>2026-02-18T14:53:42Z</time>
      </trkpt>
      <trkpt lat="43.59174" lon="6.36612">
        <ele>703</ele>
        <time>2026-02-18T14:53:58Z</time>
      </trkpt>
      <trkpt lat="43.59178" lon="6.36608">
        <ele>702</ele>
        <time>2026-02-18T14:54:04Z</time>
      </trkpt>
      <trkpt lat="43.59196" lon="6.36589">
        <ele>700</ele>
        <time>2026-02-18T14:54:22Z</time>
      </trkpt>
      <trkpt lat="43.59205" lon="6.36585">
        <ele>700</ele>
        <time>2026-02-18T14:54:32Z</time>
      </trkpt>
      <trkpt lat="43.59209" lon="6.36587">
        <ele>700</ele>
        <time>2026-02-18T14:54:40Z</time>
      </trkpt>
      <trkpt lat="43.59214" lon="6.36587">
        <ele>699</ele>
        <time>2026-02-18T14:54:46Z</time>
      </trkpt>
      <trkpt lat="43.59231" lon="6.36592">
        <ele>697</ele>
        <time>2026-02-18T14:55:02Z</time>
      </trkpt>
      <trkpt lat="43.59241" lon="6.36597">
        <ele>696</ele>
        <time>2026-02-18T14:55:14Z</time>
      </trkpt>
      <trkpt lat="43.59269" lon="6.36603">
        <ele>692</ele>
        <time>2026-02-18T14:55:44Z</time>
      </trkpt>
      <trkpt lat="43.5928" lon="6.36604">
        <ele>692</ele>
        <time>2026-02-18T14:55:58Z</time>
      </trkpt>
      <trkpt lat="43.59285" lon="6.36608">
        <ele>692</ele>
        <time>2026-02-18T14:56:02Z</time>
      </trkpt>
      <trkpt lat="43.59291" lon="6.36611">
        <ele>692</ele>
        <time>2026-02-18T14:56:06Z</time>
      </trkpt>
      <trkpt lat="43.59302" lon="6.36614">
        <ele>688</ele>
        <time>2026-02-18T14:56:26Z</time>
      </trkpt>
      <trkpt lat="43.59308" lon="6.36618">
        <ele>688</ele>
        <time>2026-02-18T14:56:30Z</time>
      </trkpt>
      <trkpt lat="43.59312" lon="6.36618">
        <ele>687</ele>
        <time>2026-02-18T14:56:38Z</time>
      </trkpt>
      <trkpt lat="43.59317" lon="6.36619">
        <ele>687</ele>
        <time>2026-02-18T14:56:46Z</time>
      </trkpt>
      <trkpt lat="43.59349" lon="6.36622">
        <ele>688</ele>
        <time>2026-02-18T14:57:20Z</time>
      </trkpt>
      <trkpt lat="43.59378" lon="6.36632">
        <ele>688</ele>
        <time>2026-02-18T14:57:50Z</time>
      </trkpt>
      <trkpt lat="43.59401" lon="6.36636">
        <ele>686</ele>
        <time>2026-02-18T14:58:14Z</time>
      </trkpt>
      <trkpt lat="43.59405" lon="6.36638">
        <ele>687</ele>
        <time>2026-02-18T14:58:20Z</time>
      </trkpt>
      <trkpt lat="43.59423" lon="6.36642">
        <ele>686</ele>
        <time>2026-02-18T14:58:36Z</time>
      </trkpt>
      <trkpt lat="43.59426" lon="6.36648">
        <ele>685</ele>
        <time>2026-02-18T14:58:40Z</time>
      </trkpt>
      <trkpt lat="43.59427" lon="6.36654">
        <ele>685</ele>
        <time>2026-02-18T14:58:44Z</time>
      </trkpt>
      <trkpt lat="43.59428" lon="6.36655">
        <ele>687</ele>
        <time>2026-02-18T14:59:04Z</time>
      </trkpt>
      <trkpt lat="43.59434" lon="6.36654">
        <ele>687</ele>
        <time>2026-02-18T14:59:10Z</time>
      </trkpt>
      <trkpt lat="43.59467" lon="6.36668">
        <ele>688</ele>
        <time>2026-02-18T14:59:40Z</time>
      </trkpt>
      <trkpt lat="43.59472" lon="6.36674">
        <ele>688</ele>
        <time>2026-02-18T14:59:46Z</time>
      </trkpt>
      <trkpt lat="43.59474" lon="6.36679">
        <ele>688</ele>
        <time>2026-02-18T14:59:50Z</time>
      </trkpt>
      <trkpt lat="43.5947" lon="6.36682">
        <ele>688</ele>
        <time>2026-02-18T14:59:54Z</time>
      </trkpt>
      <trkpt lat="43.59472" lon="6.36687">
        <ele>687</ele>
        <time>2026-02-18T14:59:58Z</time>
      </trkpt>
      <trkpt lat="43.59494" lon="6.36706">
        <ele>685</ele>
        <time>2026-02-18T15:00:26Z</time>
      </trkpt>
      <trkpt lat="43.59496" lon="6.36713">
        <ele>685</ele>
        <time>2026-02-18T15:00:32Z</time>
      </trkpt>
      <trkpt lat="43.59497" lon="6.36722">
        <ele>685</ele>
        <time>2026-02-18T15:00:36Z</time>
      </trkpt>
      <trkpt lat="43.59493" lon="6.36719">
        <ele>685</ele>
        <time>2026-02-18T15:00:44Z</time>
      </trkpt>
      <trkpt lat="43.59494" lon="6.36713">
        <ele>685</ele>
        <time>2026-02-18T15:00:50Z</time>
      </trkpt>
      <trkpt lat="43.59493" lon="6.36717">
        <ele>686</ele>
        <time>2026-02-18T15:03:42Z</time>
      </trkpt>
      <trkpt lat="43.59494" lon="6.36733">
        <ele>691</ele>
        <time>2026-02-18T15:03:50Z</time>
      </trkpt>
      <trkpt lat="43.59491" lon="6.36739">
        <ele>692</ele>
        <time>2026-02-18T15:03:54Z</time>
      </trkpt>
      <trkpt lat="43.59488" lon="6.36742">
        <ele>692</ele>
        <time>2026-02-18T15:03:58Z</time>
      </trkpt>
      <trkpt lat="43.59485" lon="6.36746">
        <ele>692</ele>
        <time>2026-02-18T15:04:08Z</time>
      </trkpt>
      <trkpt lat="43.59483" lon="6.36751">
        <ele>692</ele>
        <time>2026-02-18T15:04:10Z</time>
      </trkpt>
      <trkpt lat="43.59472" lon="6.36771">
        <ele>692</ele>
        <time>2026-02-18T15:04:26Z</time>
      </trkpt>
      <trkpt lat="43.59468" lon="6.36777">
        <ele>693</ele>
        <time>2026-02-18T15:04:34Z</time>
      </trkpt>
      <trkpt lat="43.59465" lon="6.3678">
        <ele>692</ele>
        <time>2026-02-18T15:04:38Z</time>
      </trkpt>
      <trkpt lat="43.59457" lon="6.36791">
        <ele>692</ele>
        <time>2026-02-18T15:04:52Z</time>
      </trkpt>
      <trkpt lat="43.59456" lon="6.36797">
        <ele>692</ele>
        <time>2026-02-18T15:04:56Z</time>
      </trkpt>
      <trkpt lat="43.5946" lon="6.36803">
        <ele>692</ele>
        <time>2026-02-18T15:05:00Z</time>
      </trkpt>
      <trkpt lat="43.59455" lon="6.36807">
        <ele>692</ele>
        <time>2026-02-18T15:05:20Z</time>
      </trkpt>
      <trkpt lat="43.59451" lon="6.36813">
        <ele>691</ele>
        <time>2026-02-18T15:05:26Z</time>
      </trkpt>
      <trkpt lat="43.59444" lon="6.36825">
        <ele>691</ele>
        <time>2026-02-18T15:05:40Z</time>
      </trkpt>
      <trkpt lat="43.59439" lon="6.36834">
        <ele>692</ele>
        <time>2026-02-18T15:05:44Z</time>
      </trkpt>
      <trkpt lat="43.59433" lon="6.36836">
        <ele>693</ele>
        <time>2026-02-18T15:05:48Z</time>
      </trkpt>
      <trkpt lat="43.59435" lon="6.36829">
        <ele>694</ele>
        <time>2026-02-18T15:05:52Z</time>
      </trkpt>
      <trkpt lat="43.59438" lon="6.36832">
        <ele>695</ele>
        <time>2026-02-18T15:06:52Z</time>
      </trkpt>
      <trkpt lat="43.59424" lon="6.36858">
        <ele>698</ele>
        <time>2026-02-18T15:07:08Z</time>
      </trkpt>
      <trkpt lat="43.59424" lon="6.36865">
        <ele>698</ele>
        <time>2026-02-18T15:07:14Z</time>
      </trkpt>
      <trkpt lat="43.59418" lon="6.36879">
        <ele>700</ele>
        <time>2026-02-18T15:07:28Z</time>
      </trkpt>
      <trkpt lat="43.59416" lon="6.36884">
        <ele>700</ele>
        <time>2026-02-18T15:07:32Z</time>
      </trkpt>
      <trkpt lat="43.59412" lon="6.36887">
        <ele>703</ele>
        <time>2026-02-18T15:07:38Z</time>
      </trkpt>
      <trkpt lat="43.59405" lon="6.36898">
        <ele>704</ele>
        <time>2026-02-18T15:07:50Z</time>
      </trkpt>
      <trkpt lat="43.59397" lon="6.36919">
        <ele>707</ele>
        <time>2026-02-18T15:08:10Z</time>
      </trkpt>
      <trkpt lat="43.59393" lon="6.36921">
        <ele>706</ele>
        <time>2026-02-18T15:08:22Z</time>
      </trkpt>
      <trkpt lat="43.59366" lon="6.36962">
        <ele>699</ele>
        <time>2026-02-18T15:08:56Z</time>
      </trkpt>
      <trkpt lat="43.5935" lon="6.36993">
        <ele>701</ele>
        <time>2026-02-18T15:09:22Z</time>
      </trkpt>
      <trkpt lat="43.59352" lon="6.36999">
        <ele>701</ele>
        <time>2026-02-18T15:09:38Z</time>
      </trkpt>
      <trkpt lat="43.5935" lon="6.37014">
        <ele>701</ele>
        <time>2026-02-18T15:09:48Z</time>
      </trkpt>
      <trkpt lat="43.59347" lon="6.3702">
        <ele>701</ele>
        <time>2026-02-18T15:09:56Z</time>
      </trkpt>
      <trkpt lat="43.59343" lon="6.37032">
        <ele>701</ele>
        <time>2026-02-18T15:10:10Z</time>
      </trkpt>
      <trkpt lat="43.59333" lon="6.37049">
        <ele>705</ele>
        <time>2026-02-18T15:10:28Z</time>
      </trkpt>
      <trkpt lat="43.5933" lon="6.37064">
        <ele>705</ele>
        <time>2026-02-18T15:10:38Z</time>
      </trkpt>
      <trkpt lat="43.59323" lon="6.37083">
        <ele>705</ele>
        <time>2026-02-18T15:10:56Z</time>
      </trkpt>
      <trkpt lat="43.59315" lon="6.3711">
        <ele>708</ele>
        <time>2026-02-18T15:11:30Z</time>
      </trkpt>
      <trkpt lat="43.59311" lon="6.37115">
        <ele>708</ele>
        <time>2026-02-18T15:11:48Z</time>
      </trkpt>
      <trkpt lat="43.59309" lon="6.37135">
        <ele>711</ele>
        <time>2026-02-18T15:12:06Z</time>
      </trkpt>
      <trkpt lat="43.59306" lon="6.37147">
        <ele>713</ele>
        <time>2026-02-18T15:12:14Z</time>
      </trkpt>
      <trkpt lat="43.59306" lon="6.37154">
        <ele>713</ele>
        <time>2026-02-18T15:12:18Z</time>
      </trkpt>
      <trkpt lat="43.59305" lon="6.3716">
        <ele>713</ele>
        <time>2026-02-18T15:12:22Z</time>
      </trkpt>
      <trkpt lat="43.59305" lon="6.37181">
        <ele>712</ele>
        <time>2026-02-18T15:12:36Z</time>
      </trkpt>
      <trkpt lat="43.59306" lon="6.37189">
        <ele>712</ele>
        <time>2026-02-18T15:12:40Z</time>
      </trkpt>
      <trkpt lat="43.59309" lon="6.37195">
        <ele>711</ele>
        <time>2026-02-18T15:12:46Z</time>
      </trkpt>
      <trkpt lat="43.59314" lon="6.37195">
        <ele>711</ele>
        <time>2026-02-18T15:12:52Z</time>
      </trkpt>
      <trkpt lat="43.59319" lon="6.37196">
        <ele>711</ele>
        <time>2026-02-18T15:12:56Z</time>
      </trkpt>
      <trkpt lat="43.59323" lon="6.37201">
        <ele>711</ele>
        <time>2026-02-18T15:13:00Z</time>
      </trkpt>
      <trkpt lat="43.59326" lon="6.37216">
        <ele>711</ele>
        <time>2026-02-18T15:13:08Z</time>
      </trkpt>
      <trkpt lat="43.59325" lon="6.37224">
        <ele>711</ele>
        <time>2026-02-18T15:13:12Z</time>
      </trkpt>
      <trkpt lat="43.59322" lon="6.37229">
        <ele>711</ele>
        <time>2026-02-18T15:13:20Z</time>
      </trkpt>
      <trkpt lat="43.59324" lon="6.37236">
        <ele>710</ele>
        <time>2026-02-18T15:13:32Z</time>
      </trkpt>
      <trkpt lat="43.59324" lon="6.37243">
        <ele>710</ele>
        <time>2026-02-18T15:13:42Z</time>
      </trkpt>
      <trkpt lat="43.59327" lon="6.37243">
        <ele>710</ele>
        <time>2026-02-18T15:13:52Z</time>
      </trkpt>
      <trkpt lat="43.59326" lon="6.37236">
        <ele>710</ele>
        <time>2026-02-18T15:13:58Z</time>
      </trkpt>
      <trkpt lat="43.59323" lon="6.37232">
        <ele>710</ele>
        <time>2026-02-18T15:14:04Z</time>
      </trkpt>
      <trkpt lat="43.59316" lon="6.37236">
        <ele>710</ele>
        <time>2026-02-18T15:15:58Z</time>
      </trkpt>
      <trkpt lat="43.59309" lon="6.37242">
        <ele>709</ele>
        <time>2026-02-18T15:16:02Z</time>
      </trkpt>
      <trkpt lat="43.59305" lon="6.37246">
        <ele>709</ele>
        <time>2026-02-18T15:16:06Z</time>
      </trkpt>
      <trkpt lat="43.59294" lon="6.37256">
        <ele>708</ele>
        <time>2026-02-18T15:16:14Z</time>
      </trkpt>
      <trkpt lat="43.59261" lon="6.3729">
        <ele>702</ele>
        <time>2026-02-18T15:16:44Z</time>
      </trkpt>
      <trkpt lat="43.59248" lon="6.37301">
        <ele>702</ele>
        <time>2026-02-18T15:17:04Z</time>
      </trkpt>
      <trkpt lat="43.59244" lon="6.37304">
        <ele>702</ele>
        <time>2026-02-18T15:17:08Z</time>
      </trkpt>
      <trkpt lat="43.5924" lon="6.37307">
        <ele>703</ele>
        <time>2026-02-18T15:17:22Z</time>
      </trkpt>
      <trkpt lat="43.5923" lon="6.3731">
        <ele>703</ele>
        <time>2026-02-18T15:17:36Z</time>
      </trkpt>
      <trkpt lat="43.59228" lon="6.37313">
        <ele>703</ele>
        <time>2026-02-18T15:17:48Z</time>
      </trkpt>
      <trkpt lat="43.59226" lon="6.37317">
        <ele>704</ele>
        <time>2026-02-18T15:18:04Z</time>
      </trkpt>
      <trkpt lat="43.59218" lon="6.37328">
        <ele>704</ele>
        <time>2026-02-18T15:18:28Z</time>
      </trkpt>
      <trkpt lat="43.59215" lon="6.37335">
        <ele>703</ele>
        <time>2026-02-18T15:18:32Z</time>
      </trkpt>
      <trkpt lat="43.59203" lon="6.37365">
        <ele>700</ele>
        <time>2026-02-18T15:18:48Z</time>
      </trkpt>
      <trkpt lat="43.59189" lon="6.37378">
        <ele>700</ele>
        <time>2026-02-18T15:19:06Z</time>
      </trkpt>
      <trkpt lat="43.59186" lon="6.37383">
        <ele>701</ele>
        <time>2026-02-18T15:19:12Z</time>
      </trkpt>
      <trkpt lat="43.59178" lon="6.37391">
        <ele>701</ele>
        <time>2026-02-18T15:19:20Z</time>
      </trkpt>
      <trkpt lat="43.59178" lon="6.37391">
        <ele>700</ele>
        <time>2026-02-18T15:19:38Z</time>
      </trkpt>
      <trkpt lat="43.59176" lon="6.37397">
        <ele>700</ele>
        <time>2026-02-18T15:19:42Z</time>
      </trkpt>
      <trkpt lat="43.59175" lon="6.37404">
        <ele>700</ele>
        <time>2026-02-18T15:19:48Z</time>
      </trkpt>
      <trkpt lat="43.59175" lon="6.37412">
        <ele>700</ele>
        <time>2026-02-18T15:20:00Z</time>
      </trkpt>
      <trkpt lat="43.59179" lon="6.37417">
        <ele>699</ele>
        <time>2026-02-18T15:20:18Z</time>
      </trkpt>
      <trkpt lat="43.59181" lon="6.37424">
        <ele>699</ele>
        <time>2026-02-18T15:20:22Z</time>
      </trkpt>
      <trkpt lat="43.5918" lon="6.3743">
        <ele>698</ele>
        <time>2026-02-18T15:20:26Z</time>
      </trkpt>
      <trkpt lat="43.59175" lon="6.37435">
        <ele>698</ele>
        <time>2026-02-18T15:20:34Z</time>
      </trkpt>
      <trkpt lat="43.59175" lon="6.37437">
        <ele>697</ele>
        <time>2026-02-18T15:20:52Z</time>
      </trkpt>
      <trkpt lat="43.5918" lon="6.37448">
        <ele>696</ele>
        <time>2026-02-18T15:21:02Z</time>
      </trkpt>
      <trkpt lat="43.59185" lon="6.37443">
        <ele>696</ele>
        <time>2026-02-18T15:21:22Z</time>
      </trkpt>
      <trkpt lat="43.59184" lon="6.37436">
        <ele>696</ele>
        <time>2026-02-18T15:21:28Z</time>
      </trkpt>
      <trkpt lat="43.59183" lon="6.37449">
        <ele>696</ele>
        <time>2026-02-18T15:21:58Z</time>
      </trkpt>
      <trkpt lat="43.59183" lon="6.37456">
        <ele>695</ele>
        <time>2026-02-18T15:22:00Z</time>
      </trkpt>
      <trkpt lat="43.59179" lon="6.37478">
        <ele>694</ele>
        <time>2026-02-18T15:22:26Z</time>
      </trkpt>
      <trkpt lat="43.59175" lon="6.37492">
        <ele>695</ele>
        <time>2026-02-18T15:22:32Z</time>
      </trkpt>
      <trkpt lat="43.5917" lon="6.37509">
        <ele>694</ele>
        <time>2026-02-18T15:22:36Z</time>
      </trkpt>
      <trkpt lat="43.59164" lon="6.37527">
        <ele>693</ele>
        <time>2026-02-18T15:23:10Z</time>
      </trkpt>
      <trkpt lat="43.59161" lon="6.37535">
        <ele>692</ele>
        <time>2026-02-18T15:23:18Z</time>
      </trkpt>
      <trkpt lat="43.59157" lon="6.37548">
        <ele>691</ele>
        <time>2026-02-18T15:23:26Z</time>
      </trkpt>
      <trkpt lat="43.59157" lon="6.37559">
        <ele>687</ele>
        <time>2026-02-18T15:23:32Z</time>
      </trkpt>
      <trkpt lat="43.5916" lon="6.37566">
        <ele>685</ele>
        <time>2026-02-18T15:23:34Z</time>
      </trkpt>
      <trkpt lat="43.59166" lon="6.37574">
        <ele>684</ele>
        <time>2026-02-18T15:23:38Z</time>
      </trkpt>
      <trkpt lat="43.5917" lon="6.37583">
        <ele>683</ele>
        <time>2026-02-18T15:23:44Z</time>
      </trkpt>
      <trkpt lat="43.59171" lon="6.37591">
        <ele>682</ele>
        <time>2026-02-18T15:23:48Z</time>
      </trkpt>
      <trkpt lat="43.59173" lon="6.37598">
        <ele>680</ele>
        <time>2026-02-18T15:23:54Z</time>
      </trkpt>
      <trkpt lat="43.59175" lon="6.37604">
        <ele>677</ele>
        <time>2026-02-18T15:24:04Z</time>
      </trkpt>
      <trkpt lat="43.59173" lon="6.37608">
        <ele>676</ele>
        <time>2026-02-18T15:24:36Z</time>
      </trkpt>
      <trkpt lat="43.59165" lon="6.37619">
        <ele>676</ele>
        <time>2026-02-18T15:24:48Z</time>
      </trkpt>
      <trkpt lat="43.59165" lon="6.37625">
        <ele>676</ele>
        <time>2026-02-18T15:24:54Z</time>
      </trkpt>
      <trkpt lat="43.5917" lon="6.37625">
        <ele>676</ele>
        <time>2026-02-18T15:24:58Z</time>
      </trkpt>
      <trkpt lat="43.59167" lon="6.37633">
        <ele>676</ele>
        <time>2026-02-18T15:25:10Z</time>
      </trkpt>
      <trkpt lat="43.59173" lon="6.37634">
        <ele>677</ele>
        <time>2026-02-18T15:25:16Z</time>
      </trkpt>
      <trkpt lat="43.59174" lon="6.37627">
        <ele>677</ele>
        <time>2026-02-18T15:25:22Z</time>
      </trkpt>
      <trkpt lat="43.59174" lon="6.37621">
        <ele>677</ele>
        <time>2026-02-18T15:25:26Z</time>
      </trkpt>
      <trkpt lat="43.59175" lon="6.37626">
        <ele>677</ele>
        <time>2026-02-18T15:26:04Z</time>
      </trkpt>
      <trkpt lat="43.59181" lon="6.37665">
        <ele>678</ele>
        <time>2026-02-18T15:26:36Z</time>
      </trkpt>
      <trkpt lat="43.59186" lon="6.37672">
        <ele>679</ele>
        <time>2026-02-18T15:26:40Z</time>
      </trkpt>
      <trkpt lat="43.59185" lon="6.37678">
        <ele>678</ele>
        <time>2026-02-18T15:27:08Z</time>
      </trkpt>
      <trkpt lat="43.59187" lon="6.37692">
        <ele>676</ele>
        <time>2026-02-18T15:27:24Z</time>
      </trkpt>
      <trkpt lat="43.59189" lon="6.37699">
        <ele>675</ele>
        <time>2026-02-18T15:27:36Z</time>
      </trkpt>
      <trkpt lat="43.59187" lon="6.37713">
        <ele>675</ele>
        <time>2026-02-18T15:27:52Z</time>
      </trkpt>
      <trkpt lat="43.59185" lon="6.37719">
        <ele>675</ele>
        <time>2026-02-18T15:27:56Z</time>
      </trkpt>
      <trkpt lat="43.59183" lon="6.37724">
        <ele>674</ele>
        <time>2026-02-18T15:27:58Z</time>
      </trkpt>
      <trkpt lat="43.59179" lon="6.37725">
        <ele>675</ele>
        <time>2026-02-18T15:28:02Z</time>
      </trkpt>
      <trkpt lat="43.59171" lon="6.37751">
        <ele>674</ele>
        <time>2026-02-18T15:28:30Z</time>
      </trkpt>
      <trkpt lat="43.59169" lon="6.37756">
        <ele>673</ele>
        <time>2026-02-18T15:29:24Z</time>
      </trkpt>
      <trkpt lat="43.59166" lon="6.37762">
        <ele>672</ele>
        <time>2026-02-18T15:29:36Z</time>
      </trkpt>
      <trkpt lat="43.59165" lon="6.37768">
        <ele>671</ele>
        <time>2026-02-18T15:29:50Z</time>
      </trkpt>
      <trkpt lat="43.59162" lon="6.37774">
        <ele>671</ele>
        <time>2026-02-18T15:30:30Z</time>
      </trkpt>
      <trkpt lat="43.59159" lon="6.37778">
        <ele>671</ele>
        <time>2026-02-18T15:30:36Z</time>
      </trkpt>
      <trkpt lat="43.59146" lon="6.37797">
        <ele>673</ele>
        <time>2026-02-18T15:30:52Z</time>
      </trkpt>
      <trkpt lat="43.59124" lon="6.37816">
        <ele>674</ele>
        <time>2026-02-18T15:31:18Z</time>
      </trkpt>
      <trkpt lat="43.59114" lon="6.3782">
        <ele>674</ele>
        <time>2026-02-18T15:31:26Z</time>
      </trkpt>
      <trkpt lat="43.59109" lon="6.37822">
        <ele>675</ele>
        <time>2026-02-18T15:31:32Z</time>
      </trkpt>
      <trkpt lat="43.59101" lon="6.37834">
        <ele>676</ele>
        <time>2026-02-18T15:32:00Z</time>
      </trkpt>
      <trkpt lat="43.59099" lon="6.37838">
        <ele>677</ele>
        <time>2026-02-18T15:32:06Z</time>
      </trkpt>
      <trkpt lat="43.59092" lon="6.3785">
        <ele>676</ele>
        <time>2026-02-18T15:32:20Z</time>
      </trkpt>
      <trkpt lat="43.59066" lon="6.37883">
        <ele>676</ele>
        <time>2026-02-18T15:32:50Z</time>
      </trkpt>
      <trkpt lat="43.59064" lon="6.3789">
        <ele>676</ele>
        <time>2026-02-18T15:33:02Z</time>
      </trkpt>
      <trkpt lat="43.5906" lon="6.37896">
        <ele>676</ele>
        <time>2026-02-18T15:33:08Z</time>
      </trkpt>
      <trkpt lat="43.59054" lon="6.37897">
        <ele>676</ele>
        <time>2026-02-18T15:33:14Z</time>
      </trkpt>
      <trkpt lat="43.59054" lon="6.37905">
        <ele>676</ele>
        <time>2026-02-18T15:33:28Z</time>
      </trkpt>
      <trkpt lat="43.59053" lon="6.37912">
        <ele>677</ele>
        <time>2026-02-18T15:33:38Z</time>
      </trkpt>
      <trkpt lat="43.59038" lon="6.37932">
        <ele>676</ele>
        <time>2026-02-18T15:33:56Z</time>
      </trkpt>
      <trkpt lat="43.59022" lon="6.37961">
        <ele>675</ele>
        <time>2026-02-18T15:34:28Z</time>
      </trkpt>
      <trkpt lat="43.59019" lon="6.37968">
        <ele>676</ele>
        <time>2026-02-18T15:34:34Z</time>
      </trkpt>
      <trkpt lat="43.59017" lon="6.37974">
        <ele>676</ele>
        <time>2026-02-18T15:34:40Z</time>
      </trkpt>
      <trkpt lat="43.5901" lon="6.37985">
        <ele>675</ele>
        <time>2026-02-18T15:34:56Z</time>
      </trkpt>
      <trkpt lat="43.59" lon="6.38001">
        <ele>675</ele>
        <time>2026-02-18T15:35:10Z</time>
      </trkpt>
      <trkpt lat="43.58994" lon="6.38005">
        <ele>676</ele>
        <time>2026-02-18T15:35:14Z</time>
      </trkpt>
      <trkpt lat="43.58962" lon="6.38013">
        <ele>676</ele>
        <time>2026-02-18T15:35:50Z</time>
      </trkpt>
      <trkpt lat="43.58956" lon="6.38014">
        <ele>676</ele>
        <time>2026-02-18T15:35:54Z</time>
      </trkpt>
      <trkpt lat="43.58957" lon="6.38014">
        <ele>675</ele>
        <time>2026-02-18T15:36:14Z</time>
      </trkpt>
      <trkpt lat="43.58956" lon="6.38018">
        <ele>675</ele>
        <time>2026-02-18T15:37:02Z</time>
      </trkpt>
      <trkpt lat="43.58951" lon="6.38023">
        <ele>677</ele>
        <time>2026-02-18T15:37:08Z</time>
      </trkpt>
      <trkpt lat="43.58946" lon="6.38027">
        <ele>678</ele>
        <time>2026-02-18T15:37:14Z</time>
      </trkpt>
      <trkpt lat="43.5893" lon="6.38033">
        <ele>678</ele>
        <time>2026-02-18T15:37:32Z</time>
      </trkpt>
      <trkpt lat="43.58913" lon="6.38042">
        <ele>679</ele>
        <time>2026-02-18T15:37:48Z</time>
      </trkpt>
      <trkpt lat="43.58902" lon="6.38068">
        <ele>677</ele>
        <time>2026-02-18T15:38:06Z</time>
      </trkpt>
      <trkpt lat="43.58898" lon="6.38073">
        <ele>678</ele>
        <time>2026-02-18T15:38:12Z</time>
      </trkpt>
      <trkpt lat="43.5888" lon="6.38094">
        <ele>676</ele>
        <time>2026-02-18T15:38:32Z</time>
      </trkpt>
      <trkpt lat="43.58869" lon="6.38102">
        <ele>675</ele>
        <time>2026-02-18T15:38:42Z</time>
      </trkpt>
      <trkpt lat="43.58865" lon="6.38104">
        <ele>674</ele>
        <time>2026-02-18T15:38:46Z</time>
      </trkpt>
      <trkpt lat="43.58863" lon="6.3811">
        <ele>674</ele>
        <time>2026-02-18T15:38:54Z</time>
      </trkpt>
      <trkpt lat="43.58861" lon="6.38116">
        <ele>676</ele>
        <time>2026-02-18T15:39:00Z</time>
      </trkpt>
      <trkpt lat="43.58859" lon="6.3813">
        <ele>676</ele>
        <time>2026-02-18T15:39:08Z</time>
      </trkpt>
      <trkpt lat="43.5886" lon="6.38169">
        <ele>677</ele>
        <time>2026-02-18T15:39:28Z</time>
      </trkpt>
      <trkpt lat="43.58863" lon="6.38173">
        <ele>677</ele>
        <time>2026-02-18T15:39:36Z</time>
      </trkpt>
      <trkpt lat="43.58863" lon="6.38198">
        <ele>678</ele>
        <time>2026-02-18T15:39:54Z</time>
      </trkpt>
      <trkpt lat="43.5886" lon="6.38233">
        <ele>676</ele>
        <time>2026-02-18T15:40:24Z</time>
      </trkpt>
      <trkpt lat="43.58852" lon="6.38267">
        <ele>672</ele>
        <time>2026-02-18T15:41:04Z</time>
      </trkpt>
      <trkpt lat="43.58851" lon="6.38273">
        <ele>671</ele>
        <time>2026-02-18T15:41:14Z</time>
      </trkpt>
      <trkpt lat="43.58852" lon="6.38282">
        <ele>670</ele>
        <time>2026-02-18T15:41:22Z</time>
      </trkpt>
      <trkpt lat="43.58853" lon="6.3829">
        <ele>670</ele>
        <time>2026-02-18T15:41:28Z</time>
      </trkpt>
      <trkpt lat="43.58854" lon="6.38296">
        <ele>671</ele>
        <time>2026-02-18T15:41:36Z</time>
      </trkpt>
      <trkpt lat="43.58858" lon="6.38301">
        <ele>672</ele>
        <time>2026-02-18T15:41:44Z</time>
      </trkpt>
      <trkpt lat="43.58862" lon="6.38305">
        <ele>673</ele>
        <time>2026-02-18T15:41:52Z</time>
      </trkpt>
      <trkpt lat="43.58858" lon="6.38308">
        <ele>674</ele>
        <time>2026-02-18T15:42:36Z</time>
      </trkpt>
      <trkpt lat="43.58854" lon="6.3831">
        <ele>674</ele>
        <time>2026-02-18T15:42:48Z</time>
      </trkpt>
      <trkpt lat="43.58831" lon="6.3832">
        <ele>682</ele>
        <time>2026-02-18T15:43:16Z</time>
      </trkpt>
      <trkpt lat="43.588" lon="6.38354">
        <ele>686</ele>
        <time>2026-02-18T15:43:52Z</time>
      </trkpt>
      <trkpt lat="43.58768" lon="6.3837">
        <ele>683</ele>
        <time>2026-02-18T15:44:22Z</time>
      </trkpt>
      <trkpt lat="43.58762" lon="6.38374">
        <ele>684</ele>
        <time>2026-02-18T15:44:28Z</time>
      </trkpt>
      <trkpt lat="43.58746" lon="6.38373">
        <ele>684</ele>
        <time>2026-02-18T15:44:52Z</time>
      </trkpt>
      <trkpt lat="43.58735" lon="6.3837">
        <ele>683</ele>
        <time>2026-02-18T15:45:06Z</time>
      </trkpt>
      <trkpt lat="43.5873" lon="6.3837">
        <ele>683</ele>
        <time>2026-02-18T15:45:28Z</time>
      </trkpt>
      <trkpt lat="43.58729" lon="6.38375">
        <ele>684</ele>
        <time>2026-02-18T15:45:48Z</time>
      </trkpt>
      <trkpt lat="43.58733" lon="6.38377">
        <ele>684</ele>
        <time>2026-02-18T15:46:32Z</time>
      </trkpt>
      <trkpt lat="43.58732" lon="6.38382">
        <ele>684</ele>
        <time>2026-02-18T15:46:42Z</time>
      </trkpt>
      <trkpt lat="43.58731" lon="6.38389">
        <ele>685</ele>
        <time>2026-02-18T15:46:48Z</time>
      </trkpt>
      <trkpt lat="43.58728" lon="6.38393">
        <ele>686</ele>
        <time>2026-02-18T15:46:52Z</time>
      </trkpt>
      <trkpt lat="43.58723" lon="6.38394">
        <ele>686</ele>
        <time>2026-02-18T15:46:58Z</time>
      </trkpt>
      <trkpt lat="43.58719" lon="6.38396">
        <ele>686</ele>
        <time>2026-02-18T15:47:02Z</time>
      </trkpt>
      <trkpt lat="43.5871" lon="6.38407">
        <ele>685</ele>
        <time>2026-02-18T15:47:10Z</time>
      </trkpt>
      <trkpt lat="43.58694" lon="6.38415">
        <ele>685</ele>
        <time>2026-02-18T15:47:26Z</time>
      </trkpt>
      <trkpt lat="43.58674" lon="6.38429">
        <ele>681</ele>
        <time>2026-02-18T15:47:48Z</time>
      </trkpt>
      <trkpt lat="43.5867" lon="6.38431">
        <ele>679</ele>
        <time>2026-02-18T15:47:52Z</time>
      </trkpt>
      <trkpt lat="43.58666" lon="6.38434">
        <ele>678</ele>
        <time>2026-02-18T15:47:56Z</time>
      </trkpt>
      <trkpt lat="43.58643" lon="6.38449">
        <ele>675</ele>
        <time>2026-02-18T15:48:20Z</time>
      </trkpt>
      <trkpt lat="43.58634" lon="6.38456">
        <ele>677</ele>
        <time>2026-02-18T15:48:30Z</time>
      </trkpt>
      <trkpt lat="43.58612" lon="6.38465">
        <ele>678</ele>
        <time>2026-02-18T15:48:54Z</time>
      </trkpt>
      <trkpt lat="43.58587" lon="6.38491">
        <ele>677</ele>
        <time>2026-02-18T15:49:24Z</time>
      </trkpt>
      <trkpt lat="43.58577" lon="6.38499">
        <ele>677</ele>
        <time>2026-02-18T15:49:38Z</time>
      </trkpt>
    </trkseg>
  </trk>
</gpx>